Time;durP1;ratioP1;P1;durP2;ratioP2;P2;SDS_P1;SDS_P2;PMS_P1;PMS_P2;Temp;Humidity;BMP_temperature;BMP_pressure;BME280_temperature;BME280_humidity;BME280_pressure;Samples;Min_cycle;Max_cycle;Signal;HPM_P1;HPM_P2
2021/05/30 00:01:53;;;;;;;5.25;3.35;;;20.10;81.00;;;;;;5052689;28;20051;-78
2021/05/30 00:04:19;;;;;;;4.35;3.05;;;20.10;80.90;;;;;;5052553;28;20050;-79
2021/05/30 00:06:45;;;;;;;4.97;3.55;;;20.10;80.80;;;;;;5052637;28;20028;-78
2021/05/30 00:09:11;;;;;;;7.22;4.40;;;20.10;80.90;;;;;;5052891;28;20024;-78
2021/05/30 00:11:37;;;;;;;5.78;3.63;;;20.10;80.80;;;;;;5052549;28;20067;-79
2021/05/30 00:14:04;;;;;;;5.28;3.83;;;20.10;80.80;;;;;;5052324;28;20029;-78
2021/05/30 00:16:30;;;;;;;4.45;3.60;;;20.10;80.90;;;;;;5047531;28;20044;-79
2021/05/30 00:18:56;;;;;;;6.63;3.88;;;20.10;80.90;;;;;;5033222;28;20397;-78
2021/05/30 00:21:22;;;;;;;4.63;3.72;;;20.10;80.80;;;;;;5032836;28;20018;-80
2021/05/30 00:23:47;;;;;;;8.18;3.65;;;20.10;80.70;;;;;;5032547;28;20757;-79
2021/05/30 00:26:13;;;;;;;5.80;3.83;;;20.00;80.60;;;;;;5032578;28;20026;-79
2021/05/30 00:28:39;;;;;;;6.93;4.30;;;20.00;80.40;;;;;;5047654;28;20025;-77
2021/05/30 00:31:04;;;;;;;5.38;4.18;;;20.00;80.40;;;;;;5032613;28;20026;-78
2021/05/30 00:33:30;;;;;;;5.05;3.67;;;20.00;80.00;;;;;;5032346;28;20053;-77
2021/05/30 00:35:55;;;;;;;6.60;4.20;;;20.00;80.10;;;;;;5049606;28;20389;-78
2021/05/30 00:38:21;;;;;;;5.55;3.50;;;20.00;80.00;;;;;;5051867;28;20041;-77
2021/05/30 00:40:47;;;;;;;5.65;4.15;;;20.00;79.90;;;;;;5051290;28;20017;-78
2021/05/30 00:43:12;;;;;;;5.68;3.40;;;20.00;80.00;;;;;;5052390;28;20640;-85
2021/05/30 00:45:38;;;;;;;5.28;3.60;;;20.00;79.90;;;;;;5051932;28;20059;-83
2021/05/30 00:48:04;;;;;;;6.55;4.30;;;20.00;80.00;;;;;;5050320;28;20119;-82
2021/05/30 00:50:30;;;;;;;5.28;4.05;;;19.90;79.80;;;;;;5050495;28;20017;-83
2021/05/30 00:52:56;;;;;;;7.30;3.88;;;20.00;79.80;;;;;;5051229;28;20082;-81
2021/05/30 00:55:24;;;;;;;7.80;4.90;;;20.00;79.70;;;;;;5051730;28;20052;-82
2021/05/30 00:57:50;;;;;;;7.65;4.13;;;19.90;79.50;;;;;;5051619;28;20465;-81
2021/05/30 01:00:17;;;;;;;7.00;3.80;;;19.90;79.40;;;;;;5051966;28;20045;-81
2021/05/30 01:02:43;;;;;;;5.13;3.40;;;19.90;79.40;;;;;;5051824;28;20476;-81
2021/05/30 01:05:10;;;;;;;7.05;3.63;;;19.90;79.30;;;;;;5051387;28;20032;-80
2021/05/30 01:07:42;;;;;;;6.80;4.03;;;19.90;79.20;;;;;;5051483;28;20036;-80
2021/05/30 01:10:29;;;;;;;6.15;4.03;;;19.90;79.10;;;;;;5051811;28;20025;-80
2021/05/30 01:12:58;;;;;;;5.93;3.70;;;19.90;79.10;;;;;;5052073;28;20031;-82
2021/05/30 01:15:27;;;;;;;5.78;3.78;;;19.90;78.90;;;;;;5051948;28;20476;-82
2021/05/30 01:17:54;;;;;;;5.55;3.33;;;19.90;78.80;;;;;;5051519;28;20040;-84
2021/05/30 01:20:21;;;;;;;4.15;3.67;;;19.90;78.70;;;;;;5051569;28;20029;-82
2021/05/30 01:22:48;;;;;;;4.80;4.07;;;19.90;78.70;;;;;;5051212;28;20543;-83
2021/05/30 01:25:19;;;;;;;6.18;4.20;;;19.80;78.50;;;;;;5051228;28;20064;-83
2021/05/30 01:27:47;;;;;;;6.93;4.15;;;19.80;78.40;;;;;;5050969;28;20031;-84
2021/05/30 01:30:14;;;;;;;5.63;4.05;;;19.80;78.30;;;;;;5050978;28;20021;-81
2021/05/30 01:32:40;;;;;;;5.75;3.95;;;19.80;78.20;;;;;;5051215;28;20036;-80
2021/05/30 01:35:07;;;;;;;6.68;3.90;;;19.80;78.20;;;;;;5051289;28;20025;-81
2021/05/30 01:37:32;;;;;;;5.68;3.55;;;19.80;78.10;;;;;;5051048;28;20048;-82
2021/05/30 01:39:58;;;;;;;4.40;3.60;;;19.80;78.00;;;;;;5049782;28;20112;-81
2021/05/30 01:42:24;;;;;;;5.45;3.72;;;19.80;77.90;;;;;;5051488;28;20435;-82
2021/05/30 01:44:49;;;;;;;5.72;3.65;;;19.80;78.00;;;;;;5049922;28;20445;-82
2021/05/30 01:47:15;;;;;;;5.30;3.70;;;19.80;77.90;;;;;;5050892;28;20484;-80
2021/05/30 01:49:41;;;;;;;9.38;4.72;;;19.80;77.80;;;;;;5050882;28;20500;-81
2021/05/30 01:52:08;;;;;;;6.35;3.78;;;19.70;78.40;;;;;;5049641;28;20032;-80
2021/05/30 01:54:36;;;;;;;6.05;3.38;;;19.70;77.60;;;;;;5050915;28;20500;-82
2021/05/30 01:57:07;;;;;;;6.32;3.80;;;19.70;77.60;;;;;;5049175;28;20120;-82
2021/05/30 01:59:33;;;;;;;5.20;3.85;;;19.70;77.60;;;;;;5050630;28;20480;-80
2021/05/30 02:02:00;;;;;;;5.53;3.97;;;19.70;77.60;;;;;;5050890;28;20166;-84
2021/05/30 02:04:31;;;;;;;6.57;4.40;;;19.70;77.40;;;;;;5050533;28;20079;-83
2021/05/30 02:06:58;;;;;;;5.63;3.75;;;19.70;77.40;;;;;;5049722;28;20036;-81
2021/05/30 02:09:26;;;;;;;6.65;4.05;;;19.60;77.30;;;;;;5051225;28;20155;-81
2021/05/30 02:11:51;;;;;;;6.40;4.13;;;19.60;77.20;;;;;;5050736;28;20037;-82
2021/05/30 02:14:19;;;;;;;5.65;3.75;;;19.60;77.10;;;;;;5050854;28;20114;-80
2021/05/30 02:16:45;;;;;;;6.55;3.90;;;19.60;77.00;;;;;;5050599;28;20021;-79
2021/05/30 02:19:11;;;;;;;6.43;3.92;;;19.60;77.00;;;;;;5050867;28;20029;-79
2021/05/30 02:21:43;;;;;;;5.45;3.65;;;19.60;76.90;;;;;;5049428;28;20071;-79
2021/05/30 02:24:10;;;;;;;4.93;3.53;;;19.60;76.90;;;;;;5050789;28;20036;-78
2021/05/30 02:26:36;;;;;;;4.68;3.53;;;19.60;76.90;;;;;;5050260;28;20033;-80
2021/05/30 02:29:02;;;;;;;5.78;4.20;;;19.60;76.80;;;;;;5050141;28;20029;-83
2021/05/30 02:31:28;;;;;;;5.38;3.80;;;19.60;76.70;;;;;;5050988;28;20029;-77
2021/05/30 02:33:53;;;;;;;6.88;4.47;;;19.60;76.70;;;;;;5051099;28;20028;-79
2021/05/30 02:36:19;;;;;;;6.40;4.25;;;19.60;76.60;;;;;;5083030;28;20108;-79
2021/05/30 02:38:44;;;;;;;5.45;3.45;;;19.60;76.60;;;;;;5050443;28;20465;-79
2021/05/30 02:41:10;;;;;;;5.75;3.85;;;19.60;76.50;;;;;;5050665;28;20025;-79
2021/05/30 02:43:36;;;;;;;4.57;4.00;;;19.60;76.40;;;;;;5050322;28;20090;-78
2021/05/30 02:46:02;;;;;;;6.20;4.50;;;19.60;76.40;;;;;;5050671;28;20033;-78
2021/05/30 02:48:28;;;;;;;7.30;4.35;;;19.50;76.30;;;;;;5050344;28;20458;-78
2021/05/30 02:51:00;;;;;;;5.38;4.00;;;19.60;76.30;;;;;;5050772;28;20504;-78
2021/05/30 02:53:27;;;;;;;4.85;3.45;;;19.50;76.20;;;;;;5051016;28;20088;-78
2021/05/30 02:55:54;;;;;;;5.93;4.22;;;19.50;76.20;;;;;;5050257;28;20031;-79
2021/05/30 02:58:20;;;;;;;5.35;3.95;;;19.50;76.10;;;;;;5050410;28;20056;-78
2021/05/30 03:00:45;;;;;;;6.30;4.28;;;19.50;76.10;;;;;;5050214;28;20133;-77
2021/05/30 03:03:11;;;;;;;5.35;4.15;;;19.50;76.00;;;;;;5050243;28;20032;-77
2021/05/30 03:05:37;;;;;;;5.60;4.50;;;19.50;76.10;;;;;;5053646;28;20055;-83
2021/05/30 03:08:03;;;;;;;5.70;4.32;;;19.50;76.00;;;;;;5053879;28;20033;-82
2021/05/30 03:10:29;;;;;;;7.97;4.88;;;19.50;76.00;;;;;;5053812;28;20013;-82
2021/05/30 03:12:55;;;;;;;6.15;4.25;;;19.40;75.80;;;;;;5054180;28;20055;-83
2021/05/30 03:15:20;;;;;;;7.25;4.55;;;19.40;75.80;;;;;;5069403;28;20432;-81
2021/05/30 03:17:46;;;;;;;7.60;4.78;;;19.40;75.60;;;;;;5053640;28;20041;-82
2021/05/30 03:20:12;;;;;;;6.88;4.32;;;19.50;75.60;;;;;;5052582;28;20095;-81
2021/05/30 03:22:38;;;;;;;6.45;4.18;;;19.40;75.60;;;;;;5053692;28;20029;-81
2021/05/30 03:25:05;;;;;;;6.00;4.03;;;19.40;75.60;;;;;;5053616;28;20017;-81
2021/05/30 03:27:31;;;;;;;6.50;4.75;;;19.40;75.50;;;;;;5048281;28;20057;-83
2021/05/30 03:29:57;;;;;;;5.88;4.47;;;19.40;75.50;;;;;;5034116;28;20073;-84
2021/05/30 03:32:23;;;;;;;7.88;4.53;;;19.40;75.40;;;;;;5033831;28;20033;-81
2021/05/30 03:34:49;;;;;;;5.43;4.10;;;19.40;75.40;;;;;;5033575;28;20053;-82
2021/05/30 03:37:15;;;;;;;7.03;4.65;;;19.40;75.30;;;;;;5033652;28;20543;-82
2021/05/30 03:39:43;;;;;;;5.10;4.03;;;19.40;75.30;;;;;;5033444;28;20025;-82
2021/05/30 03:42:18;;;;;;;6.43;4.80;;;19.40;75.20;;;;;;5033532;28;20477;-83
2021/05/30 03:44:43;;;;;;;6.30;4.25;;;19.40;75.20;;;;;;5033429;28;20108;-89
2021/05/30 03:47:13;;;;;;;5.90;5.03;;;19.40;75.20;;;;;;5042564;28;20100;-88
2021/05/30 03:49:42;;;;;;;6.25;4.28;;;19.40;75.10;;;;;;5052741;28;20028;-85
2021/05/30 03:52:09;;;;;;;6.43;5.03;;;19.40;75.00;;;;;;5053128;28;20047;-87
2021/05/30 03:54:35;;;;;;;5.80;5.20;;;19.30;74.90;;;;;;5053062;28;20047;-87
2021/05/30 03:57:01;;;;;;;5.88;4.90;;;19.30;74.80;;;;;;5053188;28;20021;-88
2021/05/30 03:59:27;;;;;;;5.10;4.25;;;19.30;74.80;;;;;;5053445;28;20032;-81
2021/05/30 04:01:53;;;;;;;5.38;4.88;;;19.30;74.80;;;;;;5053453;28;20017;-82
2021/05/30 04:04:19;;;;;;;6.72;4.82;;;19.30;74.70;;;;;;5053122;28;20060;-81
2021/05/30 04:06:44;;;;;;;7.50;4.40;;;19.30;74.70;;;;;;5052693;28;20040;-79
2021/05/30 04:09:10;;;;;;;7.05;4.97;;;19.30;74.60;;;;;;5052885;28;20025;-82
2021/05/30 04:11:36;;;;;;;5.75;4.47;;;19.30;74.50;;;;;;5052751;28;20500;-80
2021/05/30 04:14:02;;;;;;;5.07;4.50;;;19.30;74.50;;;;;;5052198;28;20032;-84
2021/05/30 04:16:27;;;;;;;7.28;4.78;;;19.30;74.50;;;;;;5052476;28;20059;-80
2021/05/30 04:18:53;;;;;;;5.70;4.68;;;19.30;74.40;;;;;;5052670;28;20037;-81
2021/05/30 04:21:19;;;;;;;5.80;4.13;;;19.30;74.40;;;;;;5052847;28;20068;-80
2021/05/30 04:23:45;;;;;;;5.03;4.35;;;19.30;74.40;;;;;;5051839;28;20057;-81
2021/05/30 04:26:10;;;;;;;6.53;4.90;;;19.30;74.30;;;;;;5052559;28;20036;-80
2021/05/30 04:28:36;;;;;;;6.10;4.88;;;19.20;74.10;;;;;;5052438;28;20029;-83
2021/05/30 04:31:02;;;;;;;6.50;4.82;;;19.20;74.10;;;;;;5052657;28;20025;-82
2021/05/30 04:33:28;;;;;;;8.18;5.10;;;19.30;74.10;;;;;;5052500;28;20036;-79
2021/05/30 04:35:54;;;;;;;7.13;4.15;;;19.20;74.10;;;;;;5052769;28;20024;-78
2021/05/30 04:38:20;;;;;;;5.97;5.00;;;19.20;74.10;;;;;;5052259;28;20039;-80
2021/05/30 04:40:47;;;;;;;5.88;4.50;;;19.20;74.00;;;;;;5052325;28;20020;-79
2021/05/30 04:43:13;;;;;;;5.95;5.13;;;19.20;74.00;;;;;;5051032;28;20029;-81
2021/05/30 04:45:39;;;;;;;6.53;5.00;;;19.20;73.90;;;;;;5051505;28;20049;-80
2021/05/30 04:48:05;;;;;;;6.57;4.93;;;19.20;73.90;;;;;;5051826;28;20171;-80
2021/05/30 04:50:31;;;;;;;5.07;4.57;;;19.20;73.90;;;;;;5051622;28;20473;-80
2021/05/30 04:52:56;;;;;;;4.40;3.88;;;19.20;73.90;;;;;;5047416;28;20124;-78
2021/05/30 04:55:22;;;;;;;5.88;4.90;;;19.20;73.90;;;;;;5048636;28;20057;-80
2021/05/30 04:57:48;;;;;;;6.05;4.80;;;19.20;73.80;;;;;;5051785;28;20041;-80
2021/05/30 05:00:15;;;;;;;6.10;4.43;;;19.20;73.90;;;;;;5051431;28;20017;-79
2021/05/30 05:02:41;;;;;;;6.43;4.65;;;19.20;73.80;;;;;;5083950;28;20397;-79
2021/05/30 05:05:10;;;;;;;6.90;5.00;;;19.10;73.70;;;;;;5051809;28;20025;-79
2021/05/30 05:07:36;;;;;;;7.25;4.38;;;19.10;73.70;;;;;;5051286;28;20424;-78
2021/05/30 05:10:03;;;;;;;5.47;4.22;;;19.10;73.70;;;;;;5051893;28;20029;-79
2021/05/30 05:12:28;;;;;;;7.05;4.85;;;19.10;73.80;;;;;;5051573;28;20028;-79
2021/05/30 05:14:54;;;;;;;7.45;4.82;;;19.10;73.80;;;;;;5051990;28;20424;-77
2021/05/30 05:17:19;;;;;;;5.95;4.43;;;19.10;73.80;;;;;;5051632;28;20392;-78
2021/05/30 05:19:45;;;;;;;5.82;4.35;;;19.10;73.80;;;;;;5050866;28;20028;-80
2021/05/30 05:22:11;;;;;;;5.85;4.07;;;19.10;73.80;;;;;;5051627;28;20445;-78
2021/05/30 05:24:36;;;;;;;5.07;3.58;;;19.10;73.80;;;;;;5051271;28;20021;-77
2021/05/30 05:27:02;;;;;;;4.75;3.95;;;19.10;73.80;;;;;;5051187;28;20068;-79
2021/05/30 05:29:28;;;;;;;4.78;3.97;;;19.10;73.80;;;;;;5051383;28;20024;-78
2021/05/30 05:31:53;;;;;;;5.45;4.20;;;19.10;73.80;;;;;;5051944;28;20481;-84
2021/05/30 05:34:19;;;;;;;5.85;3.78;;;19.10;73.90;;;;;;5050333;28;20021;-84
2021/05/30 05:36:45;;;;;;;4.57;3.65;;;19.10;73.90;;;;;;5051036;28;20017;-80
2021/05/30 05:39:11;;;;;;;6.30;3.92;;;19.20;74.00;;;;;;5051068;28;20469;-79
2021/05/30 05:41:37;;;;;;;8.18;4.47;;;19.10;73.60;;;;;;5051103;28;20025;-81
2021/05/30 05:44:02;;;;;;;4.70;3.90;;;19.10;73.70;;;;;;5050802;28;20037;-74
2021/05/30 05:46:28;;;;;;;5.68;4.28;;;19.10;73.90;;;;;;5051078;28;20029;-75
2021/05/30 05:48:54;;;;;;;4.72;3.55;;;19.10;73.90;;;;;;5051608;28;20021;-78
2021/05/30 05:51:19;;;;;;;4.40;3.53;;;19.10;74.00;;;;;;5051126;28;20473;-81
2021/05/30 05:53:46;;;;;;;5.03;3.85;;;19.10;74.00;;;;;;5050883;28;20028;-82
2021/05/30 05:56:12;;;;;;;5.25;3.83;;;19.10;74.00;;;;;;5051227;28;20025;-80
2021/05/30 05:58:38;;;;;;;7.07;3.33;;;19.10;74.10;;;;;;5050687;28;20051;-79
2021/05/30 06:01:04;;;;;;;12.35;5.80;;;19.20;74.20;;;;;;5051123;28;20021;-83
2021/05/30 06:03:30;;;;;;;5.05;3.97;;;19.10;74.10;;;;;;5050892;28;20036;-83
2021/05/30 06:05:55;;;;;;;5.93;3.65;;;19.10;74.10;;;;;;5050418;28;20028;-78
2021/05/30 06:08:21;;;;;;;6.50;4.50;;;19.10;74.20;;;;;;5050733;28;20096;-78
2021/05/30 06:10:47;;;;;;;6.60;4.05;;;19.20;74.30;;;;;;5050653;28;20021;-80
2021/05/30 06:13:12;;;;;;;5.07;3.67;;;19.20;74.40;;;;;;5051197;28;20443;-84
2021/05/30 06:15:43;;;;;;;5.05;3.80;;;19.20;74.30;;;;;;5083489;28;20033;-87
2021/05/30 06:18:13;;;;;;;6.93;3.80;;;19.20;74.30;;;;;;5050932;28;20033;-83
2021/05/30 06:20:40;;;;;;;6.55;3.90;;;19.20;74.40;;;;;;5050441;28;20083;-81
2021/05/30 06:23:06;;;;;;;7.13;3.38;;;19.20;74.40;;;;;;5082953;28;20036;-81
2021/05/30 06:25:32;;;;;;;5.05;3.90;;;19.20;74.50;;;;;;5050667;28;20051;-88
2021/05/30 06:27:59;;;;;;;5.97;3.55;;;19.20;74.50;;;;;;5082601;28;20033;-80
2021/05/30 06:30:26;;;;;;;6.70;3.97;;;19.20;74.50;;;;;;5051060;28;20099;-76
2021/05/30 06:32:51;;;;;;;6.55;3.47;;;19.30;74.60;;;;;;5065912;28;20029;-89
2021/05/30 06:35:17;;;;;;;5.25;3.90;;;19.30;74.70;;;;;;5050718;28;20047;-81
2021/05/30 06:37:43;;;;;;;6.13;4.10;;;19.30;74.90;;;;;;5049338;28;20040;-80
2021/05/30 06:40:09;;;;;;;4.65;3.33;;;19.30;75.10;;;;;;5053561;28;20017;-80
2021/05/30 06:42:34;;;;;;;5.93;3.67;;;19.30;75.10;;;;;;5052786;28;20021;-81
2021/05/30 06:45:00;;;;;;;10.52;3.47;;;19.40;75.30;;;;;;5052499;28;20039;-80
2021/05/30 06:47:26;;;;;;;6.50;3.50;;;19.40;75.60;;;;;;5053196;28;20020;-79
2021/05/30 06:49:52;;;;;;;9.27;5.60;;;19.40;75.70;;;;;;5052687;28;20508;-79
2021/05/30 06:52:17;;;;;;;8.15;3.55;;;19.40;76.20;;;;;;5052769;28;20079;-79
2021/05/30 06:54:43;;;;;;;5.97;4.05;;;19.40;76.50;;;;;;5052704;28;20021;-80
2021/05/30 06:57:09;;;;;;;6.00;4.57;;;19.40;76.90;;;;;;5054377;28;20436;-81
2021/05/30 06:59:35;;;;;;;10.63;4.28;;;19.40;76.90;;;;;;5054093;28;20017;-78
2021/05/30 07:02:01;;;;;;;6.25;5.03;;;19.50;77.30;;;;;;5054222;28;20055;-83
2021/05/30 07:04:28;;;;;;;5.93;4.22;;;19.50;77.20;;;;;;5054754;28;20060;-85
2021/05/30 07:06:55;;;;;;;8.40;6.10;;;19.50;77.40;;;;;;5053554;28;20131;-79
2021/05/30 07:09:22;;;;;;;10.20;6.10;;;19.50;77.30;;;;;;5054246;28;20025;-80
2021/05/30 07:11:48;;;;;;;13.00;6.15;;;19.50;77.80;;;;;;5040874;28;20680;-83
2021/05/30 07:14:14;;;;;;;11.48;6.28;;;19.50;77.70;;;;;;5058922;28;20033;-81
2021/05/30 07:16:39;;;;;;;11.07;8.07;;;19.60;78.40;;;;;;5056194;28;20048;-80
2021/05/30 07:19:05;;;;;;;13.30;8.48;;;19.60;77.80;;;;;;5071658;28;20038;-79
2021/05/30 07:21:31;;;;;;;12.52;7.63;;;19.60;77.60;;;;;;5055231;28;20021;-82
2021/05/30 07:23:56;;;;;;;14.63;8.75;;;19.60;77.90;;;;;;5069865;28;20443;-79
2021/05/30 07:26:22;;;;;;;13.60;8.18;;;19.60;77.70;;;;;;5054320;28;20492;-77
2021/05/30 07:28:48;;;;;;;12.23;7.85;;;19.60;78.40;;;;;;5060421;28;20024;-78
2021/05/30 07:31:14;;;;;;;12.60;8.63;;;19.60;78.10;;;;;;5057622;28;20032;-80
2021/05/30 07:33:40;;;;;;;12.13;8.52;;;19.70;77.80;;;;;;5052423;28;20032;-75
2021/05/30 07:36:06;;;;;;;12.32;8.30;;;19.70;77.80;;;;;;5056965;28;20033;-78
2021/05/30 07:38:33;;;;;;;10.68;8.13;;;19.70;77.60;;;;;;5055242;28;20405;-78
2021/05/30 07:40:59;;;;;;;11.30;7.95;;;19.70;77.50;;;;;;5055528;28;20526;-77
2021/05/30 07:43:25;;;;;;;12.13;6.93;;;19.70;77.40;;;;;;5055363;28;20032;-81
2021/05/30 07:45:50;;;;;;;10.43;7.30;;;19.70;77.30;;;;;;5053575;28;20025;-81
2021/05/30 07:48:16;;;;;;;9.77;6.80;;;19.70;77.30;;;;;;5053408;28;20040;-78
2021/05/30 07:50:42;;;;;;;13.95;7.88;;;19.70;77.30;;;;;;5052387;28;20021;-77
2021/05/30 07:53:07;;;;;;;9.45;6.60;;;19.70;77.50;;;;;;5053292;28;20040;-79
2021/05/30 07:55:33;;;;;;;8.10;6.45;;;19.70;77.40;;;;;;5048965;28;20025;-78
2021/05/30 07:57:59;;;;;;;8.75;7.10;;;19.80;77.20;;;;;;5054471;28;20067;-80
2021/05/30 08:00:25;;;;;;;9.80;6.75;;;19.80;77.40;;;;;;5054826;28;20032;-78
2021/05/30 08:02:53;;;;;;;13.27;6.70;;;19.80;77.40;;;;;;5052785;28;20432;-79
2021/05/30 08:05:20;;;;;;;8.75;6.25;;;19.80;77.40;;;;;;5053136;28;20039;-78
2021/05/30 08:07:49;;;;;;;9.25;6.30;;;19.80;77.40;;;;;;5052593;28;20035;-76
2021/05/30 08:10:15;;;;;;;9.13;6.13;;;19.80;77.30;;;;;;5052819;28;20021;-80
2021/05/30 08:12:42;;;;;;;14.52;7.93;;;19.80;76.80;;;;;;5046873;28;20025;-81
2021/05/30 08:15:09;;;;;;;12.23;7.68;;;19.80;76.70;;;;;;5052290;28;20056;-79
2021/05/30 08:17:36;;;;;;;9.98;6.13;;;19.80;76.90;;;;;;5051103;28;22000;-79
2021/05/30 08:20:03;;;;;;;13.10;6.72;;;19.80;77.10;;;;;;5053011;28;20496;-79
2021/05/30 08:22:29;;;;;;;13.40;7.03;;;19.80;77.20;;;;;;5047122;28;20028;-78
2021/05/30 08:24:54;;;;;;;17.42;7.22;;;19.80;77.40;;;;;;5045595;28;20028;-77
2021/05/30 08:27:20;;;;;;;14.65;7.22;;;19.80;77.20;;;;;;5047605;28;20021;-80
2021/05/30 08:29:46;;;;;;;12.48;6.55;;;19.80;77.30;;;;;;5046673;28;20032;-82
2021/05/30 08:32:11;;;;;;;12.27;7.10;;;19.90;77.20;;;;;;5069893;28;20039;-79
2021/05/30 08:34:37;;;;;;;9.07;6.35;;;19.90;77.20;;;;;;5053197;28;20030;-80
2021/05/30 08:37:04;;;;;;;13.05;7.43;;;19.90;77.40;;;;;;5055156;28;20039;-79
2021/05/30 08:39:29;;;;;;;9.02;6.60;;;19.90;77.50;;;;;;5058041;28;20025;-79
2021/05/30 08:41:56;;;;;;;11.07;6.38;;;19.90;77.00;;;;;;5058095;28;20108;-81
2021/05/30 08:44:21;;;;;;;10.25;6.20;;;19.90;77.10;;;;;;5057828;28;20415;-80
2021/05/30 08:46:47;;;;;;;9.85;6.40;;;19.90;77.00;;;;;;5055595;28;20029;-82
2021/05/30 08:49:13;;;;;;;9.00;6.00;;;19.90;77.00;;;;;;5054700;28;20033;-80
2021/05/30 08:51:41;;;;;;;7.05;5.45;;;19.90;77.30;;;;;;5051548;28;20546;-81
2021/05/30 08:54:12;;;;;;;9.00;5.60;;;19.90;76.80;;;;;;5071677;28;20078;-81
2021/05/30 08:56:40;;;;;;;14.73;5.63;;;19.90;76.70;;;;;;5060284;28;20028;-79
2021/05/30 08:59:19;;;;;;;7.68;5.68;;;19.90;76.80;;;;;;5059656;28;20029;-78
2021/05/30 09:01:45;;;;;;;15.23;6.05;;;19.90;76.80;;;;;;5056157;28;20100;-78
2021/05/30 09:04:12;;;;;;;8.88;5.32;;;20.00;76.80;;;;;;5042223;28;20038;-79
2021/05/30 09:06:43;;;;;;;6.82;4.60;;;20.00;76.70;;;;;;5031410;28;20030;-81
2021/05/30 09:09:10;;;;;;;8.38;4.45;;;20.00;76.70;;;;;;5047457;28;20028;-84
2021/05/30 09:11:44;;;;;;;11.20;5.80;;;20.00;76.70;;;;;;5070461;28;20013;-79
2021/05/30 09:14:15;;;;;;;10.38;4.63;;;20.00;76.60;;;;;;5071187;28;20484;-78
2021/05/30 09:16:48;;;;;;;9.32;4.90;;;20.00;76.70;;;;;;5066780;28;20090;-81
2021/05/30 09:19:49;;;;;;;9.40;5.60;;;20.00;77.00;;;;;;5062826;28;20569;-79
2021/05/30 09:22:14;;;;;;;4.82;4.20;;;20.10;77.10;;;;;;5047922;28;20549;-83
2021/05/30 09:24:40;;;;;;;7.82;5.18;;;20.10;76.90;;;;;;5055608;28;20037;-78
2021/05/30 09:27:10;;;;;;;7.57;5.00;;;20.10;76.80;;;;;;5051351;28;20024;-80
2021/05/30 09:29:35;;;;;;;8.75;4.78;;;20.10;77.30;;;;;;5051353;28;20400;-81
2021/05/30 09:32:02;;;;;;;6.07;4.50;;;20.20;76.90;;;;;;5048975;28;20029;-81
2021/05/30 09:34:32;;;;;;;6.28;4.40;;;20.20;76.80;;;;;;5050407;28;20493;-80
2021/05/30 09:36:58;;;;;;;4.93;4.25;;;20.20;76.90;;;;;;5048673;28;20032;-77
2021/05/30 09:39:42;;;;;;;8.98;4.55;;;20.20;76.70;;;;;;5055641;28;20024;-81
2021/05/30 09:42:25;;;;;;;6.00;4.97;;;20.20;76.60;;;;;;5058036;28;20056;-80
2021/05/30 09:44:56;;;;;;;5.32;4.35;;;20.20;76.40;;;;;;5058460;28;20086;-80
2021/05/30 09:47:43;;;;;;;9.25;4.63;;;20.20;76.40;;;;;;5059240;28;20103;-78
2021/05/30 09:50:14;;;;;;;7.85;4.90;;;20.20;76.50;;;;;;5043673;28;20086;-81
2021/05/30 09:52:42;;;;;;;11.55;5.25;;;20.30;76.80;;;;;;5050868;28;20017;-80
2021/05/30 09:55:12;;;;;;;10.10;5.05;;;20.30;78.00;;;;;;5059122;28;20044;-77
2021/05/30 09:57:38;;;;;;;17.00;5.50;;;20.30;78.20;;;;;;5049465;28;20041;-79
2021/05/30 10:00:04;;;;;;;9.70;5.68;;;20.30;77.70;;;;;;5049474;28;20100;-79
2021/05/30 10:02:32;;;;;;;8.80;5.90;;;20.30;77.80;;;;;;5051202;28;20527;-81
2021/05/30 10:04:59;;;;;;;12.07;5.60;;;20.30;78.90;;;;;;5049620;28;20021;-77
2021/05/30 10:07:26;;;;;;;10.05;5.88;;;20.40;78.70;;;;;;5051498;28;20032;-77
2021/05/30 10:09:51;;;;;;;16.70;10.95;;;20.40;78.30;;;;;;5052336;28;20079;-77
2021/05/30 10:12:18;;;;;;;20.65;13.43;;;20.40;77.60;;;;;;5050740;28;20483;-78
2021/05/30 10:14:44;;;;;;;16.25;12.18;;;20.40;76.60;;;;;;5052241;28;20032;-82
2021/05/30 10:17:11;;;;;;;17.42;12.70;;;20.40;76.50;;;;;;5060293;28;20408;-81
2021/05/30 10:19:44;;;;;;;16.48;12.65;;;20.50;75.90;;;;;;5072037;28;20082;-80
2021/05/30 10:22:11;;;;;;;18.17;13.70;;;20.50;75.00;;;;;;5071675;28;20063;-79
2021/05/30 10:24:41;;;;;;;20.20;13.63;;;20.40;74.50;;;;;;5062116;28;20036;-80
2021/05/30 10:27:22;;;;;;;18.40;13.43;;;20.50;74.80;;;;;;5058835;28;20073;-80
2021/05/30 10:30:06;;;;;;;18.08;12.45;;;20.50;74.40;;;;;;5061178;28;20063;-78
2021/05/30 10:32:32;;;;;;;20.33;12.30;;;20.50;74.30;;;;;;5050057;28;20028;-80
2021/05/30 10:35:21;;;;;;;18.13;12.48;;;20.50;74.30;;;;;;5054986;28;20078;-79
2021/05/30 10:37:48;;;;;;;18.80;12.77;;;20.50;74.20;;;;;;5050741;28;20044;-78
2021/05/30 10:40:23;;;;;;;18.33;12.57;;;20.50;74.20;;;;;;5055656;28;20067;-77
2021/05/30 10:43:07;;;;;;;19.80;15.18;;;20.50;74.40;;;;;;5052481;28;20029;-77
2021/05/30 10:45:33;;;;;;;18.73;13.57;;;20.60;75.80;;;;;;5065683;28;20067;-78
2021/05/30 10:48:05;;;;;;;20.10;11.73;;;20.60;75.30;;;;;;5062363;28;20552;-77
2021/05/30 10:50:58;;;;;;;20.60;12.93;;;20.60;75.00;;;;;;5057202;28;20039;-79
2021/05/30 10:53:36;;;;;;;18.60;12.93;;;20.60;75.00;;;;;;5055387;28;20017;-77
2021/05/30 10:56:30;;;;;;;18.20;11.63;;;20.60;75.50;;;;;;5047360;28;20488;-79
2021/05/30 10:59:15;;;;;;;15.40;11.10;;;20.60;75.10;;;;;;5053127;28;20033;-77
2021/05/30 11:01:49;;;;;;;20.17;11.88;;;20.70;75.30;;;;;;5066252;28;20029;-78
2021/05/30 11:04:24;;;;;;;18.38;11.38;;;20.70;75.40;;;;;;5073714;28;20119;-80
2021/05/30 11:07:03;;;;;;;18.45;11.52;;;20.80;74.80;;;;;;5059431;28;20445;-78
2021/05/30 11:09:59;;;;;;;21.60;11.27;;;20.80;75.10;;;;;;5053089;28;20048;-76
2021/05/30 11:12:29;;;;;;;23.02;12.38;;;20.80;76.60;;;;;;5034470;28;20033;-79
2021/05/30 11:15:14;;;;;;;19.70;12.43;;;20.90;76.60;;;;;;5051494;28;20029;-78
2021/05/30 11:17:44;;;;;;;26.15;12.50;;;20.90;75.60;;;;;;5063616;28;20078;-78
2021/05/30 11:20:27;;;;;;;18.90;12.13;;;20.90;77.30;;;;;;5052454;28;20481;-77
2021/05/30 11:22:59;;;;;;;18.30;12.25;;;20.90;76.10;;;;;;5065592;28;20040;-88
2021/05/30 11:25:49;;;;;;;16.73;12.27;;;21.00;76.20;;;;;;5073374;28;20021;-78
2021/05/30 11:28:28;;;;;;;18.15;12.50;;;21.00;76.90;;;;;;5082864;28;20036;-79
2021/05/30 11:30:58;;;;;;;14.68;12.27;;;21.00;76.70;;;;;;5052623;28;20507;-79
2021/05/30 11:33:26;;;;;;;16.58;12.70;;;21.10;77.90;;;;;;5073170;28;20484;-81
2021/05/30 11:36:04;;;;;;;18.67;12.82;;;21.10;75.40;;;;;;5073033;28;20099;-75
2021/05/30 11:38:51;;;;;;;18.80;11.63;;;21.10;75.70;;;;;;5061662;28;20032;-78
2021/05/30 11:41:27;;;;;;;17.48;12.07;;;21.10;75.50;;;;;;5043084;28;20060;-77
2021/05/30 11:44:03;;;;;;;16.27;11.57;;;21.20;73.60;;;;;;5055977;28;20561;-81
2021/05/30 11:46:33;;;;;;;16.02;10.15;;;21.20;73.50;;;;;;5073045;28;20025;-85
2021/05/30 11:49:04;;;;;;;19.92;10.65;;;21.20;72.70;;;;;;5062652;28;20126;-82
2021/05/30 11:51:48;;;;;;;17.60;10.27;;;21.30;73.80;;;;;;5064728;28;20033;-81
2021/05/30 11:54:15;;;;;;;14.43;10.02;;;21.30;74.90;;;;;;5072089;28;20086;-80
2021/05/30 11:56:44;;;;;;;12.77;8.88;;;21.30;76.00;;;;;;5069911;28;20013;-79
2021/05/30 11:59:10;;;;;;;13.32;9.77;;;21.40;76.40;;;;;;5052944;28;20493;-80
2021/05/30 12:01:50;;;;;;;13.77;9.23;;;21.40;76.60;;;;;;5063091;28;20565;-79
2021/05/30 12:04:37;;;;;;;17.25;9.32;;;21.50;77.20;;;;;;5070901;28;20530;-79
2021/05/30 12:07:04;;;;;;;16.55;9.20;;;21.50;77.30;;;;;;5072812;28;20028;-79
2021/05/30 12:09:42;;;;;;;12.35;8.70;;;21.60;77.20;;;;;;5070853;28;20078;-79
2021/05/30 12:12:31;;;;;;;11.32;8.23;;;21.60;77.30;;;;;;5070231;28;20037;-79
2021/05/30 12:15:20;;;;;;;11.05;8.38;;;21.70;76.90;;;;;;5066481;28;20017;-80
2021/05/30 12:17:54;;;;;;;9.43;6.93;;;21.60;76.90;;;;;;5053152;28;20083;-82
2021/05/30 12:20:31;;;;;;;9.85;7.45;;;21.70;76.60;;;;;;5051242;28;20031;-81
2021/05/30 12:23:08;;;;;;;15.45;7.97;;;21.70;77.40;;;;;;5052307;28;20035;-83
2021/05/30 12:25:34;;;;;;;11.77;7.57;;;21.80;76.40;;;;;;5052419;28;20105;-82
2021/05/30 12:28:00;;;;;;;13.07;7.32;;;21.80;75.80;;;;;;5050878;28;20115;-80
2021/05/30 12:30:26;;;;;;;10.88;7.30;;;21.80;76.00;;;;;;5052605;28;20029;-79
2021/05/30 12:32:52;;;;;;;8.77;7.30;;;21.80;75.80;;;;;;5051817;28;20108;-80
2021/05/30 12:35:48;;;;;;;11.02;7.18;;;21.90;75.50;;;;;;5049345;28;20037;-80
2021/05/30 12:38:16;;;;;;;10.57;6.47;;;21.90;75.10;;;;;;5045597;28;20041;-82
2021/05/30 12:40:43;;;;;;;9.35;6.68;;;21.90;75.10;;;;;;5051911;28;20032;-81
2021/05/30 12:43:09;;;;;;;10.02;6.68;;;22.00;74.70;;;;;;5052306;28;20033;-82
2021/05/30 12:45:37;;;;;;;10.35;5.93;;;22.00;74.50;;;;;;5051955;28;20078;-81
2021/05/30 12:48:03;;;;;;;10.68;6.88;;;22.00;74.30;;;;;;5051314;28;20062;-82
2021/05/30 12:50:40;;;;;;;10.75;6.70;;;22.00;74.20;;;;;;5061719;28;20037;-81